createdAt,value
2017-07-16T00:00:16.316Z,45.6
2017-07-16T00:02:05.056Z,45.7
2017-07-16T00:04:05.865Z,46
2017-07-16T00:06:05.778Z,45.8
2017-07-16T00:08:05.001Z,45.8
2017-07-16T00:10:08.381Z,46
2017-07-16T00:12:05.283Z,45.9
2017-07-16T00:14:08.049Z,45.7
2017-07-16T00:16:05.789Z,45.7
2017-07-16T00:18:05.972Z,45.7
2017-07-16T00:20:08.192Z,45.8
2017-07-16T00:22:04.999Z,45.8
2017-07-16T00:24:07.946Z,45.9
2017-07-16T00:26:05.743Z,45.7
2017-07-16T00:28:08.027Z,45.6
2017-07-16T00:30:05.781Z,45.6
2017-07-16T00:32:05.645Z,45.6
2017-07-16T00:34:08.146Z,45.5
2017-07-16T00:36:10.459Z,45.5
2017-07-16T00:38:05.339Z,45.5
2017-07-16T00:40:07.607Z,45.7
2017-07-16T00:42:05.986Z,45.7
2017-07-16T00:44:05.700Z,45.7
2017-07-16T00:46:05.483Z,45.6
2017-07-16T00:48:05.399Z,45.5
2017-07-16T00:50:05.174Z,45.4
2017-07-16T00:52:05.916Z,45.4
2017-07-16T00:56:05.892Z,45.3
2017-07-16T00:58:05.143Z,45.2
2017-07-16T01:00:05.877Z,45.1
2017-07-16T01:02:08.300Z,45
2017-07-16T01:04:05.683Z,45
2017-07-16T01:06:51.609Z,45.3
2017-07-16T01:08:05.893Z,45.2
2017-07-16T01:10:08.186Z,45.2
2017-07-16T01:12:05.878Z,45.2
2017-07-16T01:14:05.882Z,45.1
2017-07-16T01:16:05.591Z,45.2
2017-07-16T01:18:05.482Z,45.1
2017-07-16T01:20:05.319Z,45.1
2017-07-16T01:22:06.032Z,45.1
2017-07-16T01:24:08.328Z,45.1
2017-07-16T01:26:05.106Z,45.1
2017-07-16T01:28:05.780Z,45.1
2017-07-16T01:30:05.485Z,45
2017-07-16T01:32:05.347Z,45
2017-07-16T01:34:07.606Z,45
2017-07-16T01:36:05.262Z,45
2017-07-16T01:38:06.111Z,45
2017-07-16T01:40:05.350Z,45
2017-07-16T01:42:05.039Z,44.9
2017-07-16T01:44:05.863Z,44.9
2017-07-16T01:46:08.066Z,44.9
2017-07-16T01:48:08.285Z,44.9
2017-07-16T01:50:11.185Z,45.1
2017-07-16T01:52:07.939Z,44.9
2017-07-16T01:54:05.749Z,45.1
2017-07-16T01:56:05.620Z,44.8
2017-07-16T01:58:05.405Z,45.1
2017-07-16T02:00:05.141Z,44.8
2017-07-16T02:02:08.085Z,44.8
2017-07-16T02:04:05.898Z,45.1
2017-07-16T02:06:05.612Z,45.1
2017-07-16T02:08:05.461Z,45.1
2017-07-16T02:10:05.318Z,45.1
2017-07-16T02:12:05.141Z,45.1
2017-07-16T02:14:06.227Z,45.1
2017-07-16T02:16:08.440Z,45.1
2017-07-16T02:18:10.386Z,45.1
2017-07-16T02:20:05.781Z,45.1
2017-07-16T02:22:06.040Z,45.1
2017-07-16T02:24:08.401Z,45.1
2017-07-16T02:26:10.481Z,45.1
2017-07-16T02:28:05.211Z,45.1
2017-07-16T02:30:05.907Z,45.1
2017-07-16T02:32:05.761Z,45.1
2017-07-16T02:34:08.522Z,45.1
2017-07-16T02:36:05.476Z,45.1
2017-07-16T02:38:05.283Z,45.1
2017-07-16T02:40:05.494Z,45.1
2017-07-16T02:42:05.222Z,45.1
2017-07-16T02:44:16.198Z,45.1
2017-07-16T02:46:05.536Z,45.1
2017-07-16T02:48:07.810Z,45
2017-07-16T02:50:08.268Z,45
2017-07-16T02:52:05.539Z,45
2017-07-16T02:54:05.267Z,45
2017-07-16T02:56:05.951Z,45.3
2017-07-16T02:58:05.966Z,45.6
2017-07-16T03:00:05.170Z,45.9
2017-07-16T03:02:05.481Z,46.3
2017-07-16T03:04:05.201Z,46.4
2017-07-16T03:06:05.916Z,46.5
2017-07-16T03:08:08.328Z,46.7
2017-07-16T03:10:05.020Z,46.7
2017-07-16T03:12:05.753Z,46.8
2017-07-16T03:14:10.522Z,46.9
2017-07-16T03:16:07.731Z,47
2017-07-16T03:18:05.637Z,47.1
2017-07-16T03:20:05.458Z,47.2
2017-07-16T03:22:05.226Z,47.2
2017-07-16T03:24:05.889Z,47.4
2017-07-16T03:26:08.296Z,47.5
2017-07-16T03:28:05.510Z,47.5
2017-07-16T03:30:05.241Z,47.5
2017-07-16T03:32:05.942Z,47.6
2017-07-16T03:34:05.610Z,47.5
2017-07-16T03:36:05.318Z,47.6
2017-07-16T03:38:05.068Z,47.9
2017-07-16T03:40:05.776Z,47.8
2017-07-16T03:42:05.465Z,47.9
2017-07-16T03:44:05.393Z,47.9
2017-07-16T03:46:05.142Z,47.9
2017-07-16T03:48:05.824Z,48.1
2017-07-16T03:50:05.822Z,48.1
2017-07-16T03:52:05.509Z,48.1
2017-07-16T03:54:05.181Z,48.2
2017-07-16T03:56:13.550Z,48
2017-07-16T03:58:07.744Z,48.2
2017-07-16T04:00:05.518Z,48.2
2017-07-16T04:02:05.855Z,48.5
2017-07-16T04:04:15.755Z,48.5
2017-07-16T04:06:08.088Z,48.5
2017-07-16T04:08:08.482Z,48.5
2017-07-16T04:10:10.255Z,48.5
2017-07-16T04:12:08.497Z,48.5
2017-07-16T04:14:05.614Z,48.3
2017-07-16T04:16:05.393Z,48.3
2017-07-16T04:18:10.551Z,48.3
2017-07-16T04:20:05.695Z,48.3
2017-07-16T04:22:05.464Z,48.3
2017-07-16T04:24:07.711Z,48.3
2017-07-16T04:26:05.406Z,48.3
2017-07-16T04:28:05.594Z,48.3
2017-07-16T04:30:05.322Z,48.3
2017-07-16T04:32:07.883Z,48.3
2017-07-16T04:34:05.704Z,48.3
2017-07-16T04:36:05.343Z,48.3
2017-07-16T04:38:05.070Z,48.3
2017-07-16T04:40:05.932Z,48.3
2017-07-16T04:42:05.625Z,48.3
2017-07-16T04:44:05.386Z,48.3
2017-07-16T04:46:05.091Z,48.3
2017-07-16T04:48:08.495Z,48.3
2017-07-16T04:50:13.982Z,48
2017-07-16T04:52:05.136Z,47.7
2017-07-16T04:54:05.915Z,48.3
2017-07-16T04:56:05.174Z,48.4
2017-07-16T04:58:08.364Z,48.3
2017-07-16T05:00:05.109Z,48.1
2017-07-16T05:02:06.091Z,48.4
2017-07-16T05:04:08.329Z,48.6
2017-07-16T05:06:07.573Z,48.3
2017-07-16T05:08:05.939Z,48.4
2017-07-16T05:10:05.619Z,48.3
2017-07-16T05:12:07.864Z,48.3
2017-07-16T05:14:05.088Z,48.3
2017-07-16T05:16:05.832Z,48.2
2017-07-16T05:18:05.825Z,48.3
2017-07-16T05:20:05.623Z,48.2
2017-07-16T05:22:05.326Z,48.1
2017-07-16T05:24:05.112Z,48.3
2017-07-16T05:26:05.965Z,48.4
2017-07-16T05:28:05.717Z,48.4
2017-07-16T05:30:05.429Z,48.5
2017-07-16T05:32:05.166Z,48.4
2017-07-16T05:34:05.943Z,48.5
2017-07-16T05:36:08.170Z,48.5
2017-07-16T05:38:05.934Z,48.5
2017-07-16T05:40:05.631Z,48.5
2017-07-16T05:42:05.306Z,48.3
2017-07-16T05:44:08.659Z,48.2
2017-07-16T05:46:05.360Z,48.3
2017-07-16T05:48:07.598Z,48.5
2017-07-16T05:50:05.581Z,48.5
2017-07-16T05:52:05.340Z,48.4
2017-07-16T05:54:05.105Z,48.6
2017-07-16T05:56:10.436Z,48.6
2017-07-16T05:58:05.131Z,48.6
2017-07-16T06:00:05.815Z,48.6
2017-07-16T06:02:05.849Z,48.8
2017-07-16T06:04:05.541Z,48.8
2017-07-16T06:06:05.218Z,48.8
2017-07-16T06:08:05.761Z,48.8
2017-07-16T06:10:05.626Z,48.8
2017-07-16T06:12:05.411Z,48.7
2017-07-16T06:14:30.561Z,48.6
2017-07-16T06:16:05.305Z,48.6
2017-07-16T06:18:05.216Z,48.6
2017-07-16T06:20:06.071Z,48.7
2017-07-16T06:22:06.216Z,48.8
2017-07-16T06:24:05.907Z,48.6
2017-07-16T06:26:05.789Z,48.7
2017-07-16T06:28:08.035Z,48.9
2017-07-16T06:30:05.734Z,48.8
2017-07-16T06:32:05.480Z,36
2017-07-16T06:34:05.170Z,48.7
2017-07-16T06:36:08.400Z,48.9
2017-07-16T06:38:05.216Z,48.9
2017-07-16T06:40:05.931Z,49.1
2017-07-16T06:42:05.670Z,48.8
2017-07-16T06:44:08.158Z,49.1
2017-07-16T06:46:05.874Z,48.9
2017-07-16T06:48:05.566Z,48.9
2017-07-16T06:50:05.454Z,49.2
2017-07-16T06:52:05.155Z,49.1
2017-07-16T06:54:13.000Z,48.8
2017-07-16T06:56:05.926Z,48.8
2017-07-16T06:58:05.469Z,48.8
2017-07-16T07:00:05.118Z,48.9
2017-07-16T07:02:05.635Z,48.8
2017-07-16T07:04:05.332Z,48.8
2017-07-16T07:06:05.030Z,48.9
2017-07-16T07:08:05.834Z,48.9
2017-07-16T07:10:05.502Z,48.9
2017-07-16T07:12:05.230Z,49.1
2017-07-16T07:14:05.564Z,49
2017-07-16T07:16:05.802Z,49
2017-07-16T07:18:05.677Z,48.9
2017-07-16T07:20:05.446Z,49
2017-07-16T07:22:05.782Z,48.9
2017-07-16T07:24:07.978Z,48.7
2017-07-16T07:26:05.783Z,48.7
2017-07-16T07:28:05.701Z,48.7
2017-07-16T07:30:06.047Z,48.6
2017-07-16T07:32:06.319Z,48.8
2017-07-16T07:34:05.017Z,48.3
2017-07-16T07:36:06.936Z,48.6
2017-07-16T07:38:05.895Z,48.6
2017-07-16T07:40:06.179Z,48.4
2017-07-16T07:42:05.317Z,48.5
2017-07-16T07:44:06.189Z,48.3
2017-07-16T07:46:05.771Z,48.6
2017-07-16T07:48:05.508Z,48.6
2017-07-16T07:50:10.762Z,48.8
2017-07-16T07:52:05.794Z,48.6
2017-07-16T07:54:08.010Z,48.3
2017-07-16T07:56:05.807Z,48.3
2017-07-16T07:58:11.225Z,48.8
2017-07-16T08:00:06.218Z,48.7
2017-07-16T08:02:05.606Z,48.8
2017-07-16T08:04:05.172Z,48.9
2017-07-16T08:06:06.089Z,49.1
2017-07-16T08:08:10.428Z,49
2017-07-16T08:10:08.562Z,48.7
2017-07-16T08:12:05.253Z,48.8
2017-07-16T08:14:05.682Z,49
2017-07-16T08:16:05.344Z,49.1
2017-07-16T08:18:07.832Z,49.5
2017-07-16T08:20:06.199Z,49.3
2017-07-16T08:22:05.877Z,49.2
2017-07-16T08:24:05.808Z,49.2
2017-07-16T08:26:05.409Z,48.9
2017-07-16T08:28:08.242Z,49.5
2017-07-16T08:30:05.162Z,49.5
2017-07-16T08:32:06.584Z,49.5
2017-07-16T08:34:06.032Z,49.4
2017-07-16T08:36:05.792Z,49.4
2017-07-16T08:38:08.381Z,49.4
2017-07-16T08:40:13.334Z,49.4
2017-07-16T08:42:07.648Z,49.5
2017-07-16T08:44:06.067Z,49.5
2017-07-16T08:46:08.517Z,49.5
2017-07-16T08:48:06.394Z,49.5
2017-07-16T08:50:05.249Z,49.3
2017-07-16T08:52:08.481Z,48.9
2017-07-16T08:54:10.240Z,49.6
2017-07-16T08:56:11.259Z,49.6
2017-07-16T08:58:10.155Z,49.5
2017-07-16T09:00:08.592Z,49.4
2017-07-16T09:02:07.223Z,49.7
2017-07-16T09:04:05.964Z,49.7
2017-07-16T09:06:08.433Z,49.8
2017-07-16T09:08:05.312Z,49.8
2017-07-16T09:10:05.969Z,49.5
2017-07-16T09:12:08.200Z,49.8
2017-07-16T09:14:05.886Z,49.5
2017-07-16T09:16:10.832Z,49.7
2017-07-16T09:18:10.979Z,49.9
2017-07-16T09:20:05.286Z,49.8
2017-07-16T09:22:05.779Z,50
2017-07-16T09:24:06.186Z,50
2017-07-16T09:26:05.132Z,49.8
2017-07-16T09:28:05.473Z,49.8
2017-07-16T09:30:08.559Z,49.6
2017-07-16T09:35:14.042Z,50.1
2017-07-16T09:36:20.021Z,50.1
2017-07-16T09:38:13.426Z,50
2017-07-16T09:40:07.938Z,49.6
2017-07-16T09:42:18.323Z,49.7
2017-07-16T09:44:08.413Z,50.4
2017-07-16T09:46:10.433Z,50.5
2017-07-16T09:48:07.361Z,50.5
2017-07-16T09:50:05.714Z,50.3
2017-07-16T09:52:06.373Z,50.3
2017-07-16T09:54:10.827Z,50.6
2017-07-16T09:56:05.770Z,50.8
2017-07-16T09:58:08.085Z,51
2017-07-16T10:00:06.068Z,51
2017-07-16T10:02:10.155Z,51.5
2017-07-16T10:04:06.502Z,51.4
2017-07-16T10:06:08.686Z,51.2
2017-07-16T10:08:07.753Z,51.5
2017-07-16T10:10:06.160Z,51.5
2017-07-16T10:12:06.697Z,51.2
2017-07-16T10:14:05.856Z,51.7
2017-07-16T10:16:05.778Z,51.4
2017-07-16T10:18:05.560Z,51.7
2017-07-16T10:20:10.582Z,52
2017-07-16T10:22:05.548Z,52
2017-07-16T10:24:07.063Z,52.1
2017-07-16T10:26:26.003Z,52.2
2017-07-16T10:28:06.745Z,52.3
2017-07-16T10:30:05.916Z,52
2017-07-16T10:32:05.515Z,52.1
2017-07-16T10:34:05.679Z,52.3
2017-07-16T10:36:07.017Z,52.3
2017-07-16T10:38:05.946Z,52.4
2017-07-16T10:40:06.013Z,52
2017-07-16T10:42:05.893Z,52.2
2017-07-16T10:44:06.645Z,52.2
2017-07-16T10:46:07.829Z,51.9
2017-07-16T10:48:08.267Z,52.1
2017-07-16T10:50:08.646Z,52.5
2017-07-16T10:52:05.343Z,52.2
2017-07-16T10:54:05.627Z,52.4
2017-07-16T10:56:09.620Z,52.8
2017-07-16T10:58:10.515Z,52.8
2017-07-16T11:00:05.557Z,52.6
2017-07-16T11:02:06.161Z,52.7
2017-07-16T11:04:10.823Z,52.6
2017-07-16T11:06:13.806Z,52.1
2017-07-16T11:08:06.191Z,52.3
2017-07-16T11:10:05.900Z,52.5
2017-07-16T11:12:13.577Z,52.9
2017-07-16T11:14:05.875Z,53.1
2017-07-16T11:16:06.856Z,53.8
2017-07-16T11:18:07.012Z,53.8
2017-07-16T11:20:06.382Z,53.6
2017-07-16T11:22:06.754Z,53.6
2017-07-16T11:24:05.995Z,53.8
2017-07-16T11:26:05.688Z,55
2017-07-16T11:28:06.377Z,53.9
2017-07-16T11:30:05.955Z,53.9
2017-07-16T11:32:05.907Z,54.6
2017-07-16T11:34:05.930Z,54.1
2017-07-16T11:36:06.315Z,54.4
2017-07-16T11:38:05.084Z,54.4
2017-07-16T11:40:07.977Z,54.7
2017-07-16T11:42:05.832Z,54.6
2017-07-16T11:44:07.620Z,54.6
2017-07-16T11:46:05.769Z,54.6
2017-07-16T11:48:06.716Z,54.4
2017-07-16T11:50:05.487Z,54.4
2017-07-16T11:52:10.301Z,54.1
2017-07-16T11:54:05.844Z,54.1
2017-07-16T11:56:06.118Z,54.8
2017-07-16T11:58:05.596Z,54.2
2017-07-16T12:00:17.087Z,54.2
2017-07-16T12:02:07.810Z,54.2
2017-07-16T12:04:05.769Z,54.2
2017-07-16T12:06:09.492Z,54.2
2017-07-16T12:08:05.893Z,54.2
2017-07-16T12:10:06.872Z,54.4
2017-07-16T12:12:06.209Z,54.4
2017-07-16T12:14:07.603Z,54.3
2017-07-16T12:16:08.340Z,54.3
2017-07-16T12:18:10.271Z,54.3
2017-07-16T12:20:06.885Z,54.2
2017-07-16T12:22:05.876Z,54.8
2017-07-16T12:24:12.939Z,54.1
2017-07-16T12:26:05.907Z,54.1
2017-07-16T12:28:06.083Z,54.3
2017-07-16T12:30:11.403Z,54.1
2017-07-16T12:32:05.959Z,54.2
2017-07-16T12:34:06.238Z,54.2
2017-07-16T12:36:10.619Z,54.4
2017-07-16T12:38:07.147Z,54.3
2017-07-16T12:40:06.911Z,54.3
2017-07-16T12:42:08.190Z,54.3
2017-07-16T12:44:06.417Z,54.2
2017-07-16T12:46:05.359Z,54.3
2017-07-16T12:48:06.040Z,54.5
2017-07-16T12:50:06.953Z,54.3
2017-07-16T12:52:06.829Z,54.3
2017-07-16T12:54:06.040Z,54.5
2017-07-16T12:56:05.929Z,54.4
2017-07-16T12:58:05.598Z,54.3
2017-07-16T13:00:10.766Z,54.4
2017-07-16T13:02:07.734Z,54.3
2017-07-16T13:04:07.111Z,54.3
2017-07-16T13:06:10.371Z,54.5
2017-07-16T13:08:05.581Z,54.4
2017-07-16T13:10:05.791Z,54.4
2017-07-16T13:12:06.080Z,54.5
2017-07-16T13:14:06.944Z,54.4
2017-07-16T13:16:05.934Z,54.3
2017-07-16T13:18:06.030Z,54.5
2017-07-16T13:20:05.753Z,54.4
2017-07-16T13:22:09.592Z,54.4
2017-07-16T13:24:05.568Z,54.4
2017-07-16T13:26:05.472Z,54.5
2017-07-16T13:28:05.385Z,54.5
2017-07-16T13:30:06.604Z,54.3
2017-07-16T13:32:08.602Z,54.6
2017-07-16T13:34:08.190Z,54.4
2017-07-16T13:36:05.208Z,54.4
2017-07-16T13:38:05.628Z,54.6
2017-07-16T13:40:06.804Z,54.4
2017-07-16T13:42:08.272Z,54.8
2017-07-16T13:44:06.205Z,54.6
2017-07-16T13:46:05.664Z,54.6
2017-07-16T13:48:09.119Z,55
2017-07-16T13:50:05.739Z,54.7
2017-07-16T13:52:06.667Z,54.7
2017-07-16T13:54:11.064Z,55.1
2017-07-16T13:56:06.784Z,55
2017-07-16T13:58:07.101Z,55
2017-07-16T14:00:05.442Z,55.1
2017-07-16T14:02:12.723Z,55.1
2017-07-16T14:04:05.591Z,55.1
2017-07-16T14:06:11.441Z,55.1
2017-07-16T14:08:05.330Z,55.1
2017-07-16T14:10:10.709Z,55.1
2017-07-16T14:12:06.304Z,55.3
2017-07-16T14:14:09.548Z,55.3
2017-07-16T14:16:07.320Z,55.3
2017-07-16T14:18:07.030Z,55.5
2017-07-16T14:20:08.332Z,55.2
2017-07-16T14:22:12.223Z,55.4
2017-07-16T14:24:06.450Z,55.4
2017-07-16T14:26:05.490Z,55.3
2017-07-16T14:28:05.722Z,55.3
2017-07-16T14:30:05.433Z,55.2
2017-07-16T14:32:06.528Z,55.3
2017-07-16T14:34:08.001Z,55.1
2017-07-16T14:36:08.268Z,55.2
2017-07-16T14:38:05.229Z,55
2017-07-16T14:40:11.021Z,55.3
2017-07-16T14:42:05.612Z,55.3
2017-07-16T14:44:05.980Z,55.2
2017-07-16T14:46:10.928Z,55.3
2017-07-16T14:48:05.358Z,55.2
2017-07-16T14:50:05.517Z,55.2
2017-07-16T14:52:05.577Z,55.2
2017-07-16T14:54:05.757Z,55
2017-07-16T14:56:05.693Z,55.1
2017-07-16T14:58:05.783Z,55
2017-07-16T15:00:05.454Z,54.9
2017-07-16T15:02:07.754Z,54.7
2017-07-16T15:04:07.053Z,54.6
2017-07-16T15:06:08.975Z,54.6
2017-07-16T15:08:09.352Z,54.5
2017-07-16T15:10:10.494Z,54.5
2017-07-16T15:12:09.734Z,54.4
2017-07-16T15:14:06.192Z,54.4
2017-07-16T15:16:07.153Z,54.4
2017-07-16T15:18:05.071Z,54.4
2017-07-16T15:20:06.624Z,54.3
2017-07-16T15:22:10.148Z,54.2
2017-07-16T15:24:06.260Z,54.2
2017-07-16T15:26:05.665Z,54.2
2017-07-16T15:28:09.106Z,54.1
2017-07-16T15:30:05.689Z,54.1
2017-07-16T15:32:10.857Z,54.1
2017-07-16T15:34:10.661Z,54.1
2017-07-16T15:36:06.659Z,54.1
2017-07-16T15:38:09.206Z,54.1
2017-07-16T15:40:05.910Z,54.1
2017-07-16T15:42:05.573Z,54.1
2017-07-16T15:44:09.001Z,54.1
2017-07-16T15:46:06.750Z,54.1
2017-07-16T15:48:08.389Z,54.1
2017-07-16T15:50:05.872Z,54.1
2017-07-16T15:52:05.974Z,54
2017-07-16T15:54:05.666Z,54.4
2017-07-16T15:56:05.927Z,54
2017-07-16T15:58:05.731Z,54.2
2017-07-16T16:00:05.429Z,53.9
2017-07-16T16:02:06.007Z,54
2017-07-16T16:04:05.751Z,53.9
2017-07-16T16:06:05.989Z,53.9
2017-07-16T16:08:05.940Z,53.9
2017-07-16T16:10:05.311Z,54
2017-07-16T16:12:05.988Z,54
2017-07-16T16:14:05.652Z,54.1
2017-07-16T16:16:06.055Z,54.1
2017-07-16T16:18:10.968Z,54
2017-07-16T16:20:05.631Z,54.1
2017-07-16T16:22:05.622Z,54.1
2017-07-16T16:24:07.987Z,54.2
2017-07-16T16:26:08.653Z,54.3
2017-07-16T16:28:07.840Z,54.2
2017-07-16T16:30:05.516Z,54.2
2017-07-16T16:32:07.746Z,54.3
2017-07-16T16:34:05.649Z,54.3
2017-07-16T16:36:05.327Z,54.2
2017-07-16T16:38:07.884Z,54.4
2017-07-16T16:40:08.134Z,54.4
2017-07-16T16:42:05.371Z,54.4
2017-07-16T16:44:08.369Z,54.3
2017-07-16T16:46:05.061Z,54.3
2017-07-16T16:48:05.805Z,54.5
2017-07-16T16:50:05.652Z,54.2
2017-07-16T16:52:05.447Z,54.2
2017-07-16T16:54:05.124Z,54.2
2017-07-16T16:56:05.918Z,54.2
2017-07-16T16:58:05.605Z,54.1
2017-07-16T17:00:10.659Z,54.1
2017-07-16T17:02:05.759Z,54.1
2017-07-16T17:04:05.663Z,54
2017-07-16T17:06:07.943Z,54
2017-07-16T17:08:05.998Z,54
2017-07-16T17:10:07.787Z,54
2017-07-16T17:12:05.520Z,54
2017-07-16T17:14:05.362Z,54
2017-07-16T17:16:07.629Z,53.9
2017-07-16T17:18:13.187Z,53.9
2017-07-16T17:20:05.913Z,53.9
2017-07-16T17:22:05.623Z,54
2017-07-16T17:24:05.338Z,53.9
2017-07-16T17:26:10.646Z,53.9
2017-07-16T17:28:05.340Z,53.9
2017-07-16T17:30:05.104Z,53.9
2017-07-16T17:32:08.515Z,53.9
2017-07-16T17:34:05.191Z,53.6
2017-07-16T17:36:05.867Z,53.9
2017-07-16T17:38:08.705Z,53.6
2017-07-16T17:40:07.936Z,53.7
2017-07-16T17:42:05.705Z,53.5
2017-07-16T17:44:05.736Z,53.6
2017-07-16T17:46:06.026Z,53.8
2017-07-16T17:48:05.928Z,53.5
2017-07-16T17:50:05.568Z,53.8
2017-07-16T17:52:08.091Z,53.5
2017-07-16T17:54:05.792Z,53.5
2017-07-16T17:56:05.510Z,53.5
2017-07-16T17:58:05.734Z,53.5
2017-07-16T18:00:05.437Z,53.5
2017-07-16T18:02:08.514Z,53.5
2017-07-16T18:04:05.923Z,53.5
2017-07-16T18:06:06.134Z,53.5
2017-07-16T18:08:05.935Z,53.5
2017-07-16T18:10:06.007Z,53.5
2017-07-16T18:12:06.724Z,53.5
2017-07-16T18:14:05.599Z,53.5
2017-07-16T18:16:05.337Z,53.5
2017-07-16T18:18:05.703Z,53.5
2017-07-16T18:20:05.265Z,53.5
2017-07-16T18:22:05.953Z,53.5
2017-07-16T18:24:08.186Z,53.6
2017-07-16T18:26:06.585Z,53.6
2017-07-16T18:28:08.079Z,53.5
2017-07-16T18:30:08.316Z,53.5
2017-07-16T18:32:05.078Z,53.6
2017-07-16T18:34:05.771Z,53.7
2017-07-16T18:36:08.048Z,53.6
2017-07-16T18:38:05.972Z,53.6
2017-07-16T18:40:05.688Z,53.7
2017-07-16T18:42:05.646Z,53.7
2017-07-16T18:44:08.043Z,53.7
2017-07-16T18:46:10.825Z,53.6
2017-07-16T18:48:07.656Z,53.7
2017-07-16T18:50:05.460Z,53.7
2017-07-16T18:52:05.162Z,53.7
2017-07-16T18:54:07.933Z,53.7
2017-07-16T18:56:05.603Z,53.7
2017-07-16T18:58:05.282Z,53.8
2017-07-16T19:00:05.921Z,53.8
2017-07-16T19:02:06.826Z,53.7
2017-07-16T19:04:05.567Z,53.6
2017-07-16T19:06:05.251Z,53.6
2017-07-16T19:08:06.109Z,53.7
2017-07-16T19:10:05.758Z,53.6
2017-07-16T19:12:05.464Z,53.7
2017-07-16T19:14:07.855Z,53.7
2017-07-16T19:16:05.606Z,53.7
2017-07-16T19:18:05.497Z,53.7
2017-07-16T19:20:06.894Z,53.8
2017-07-16T19:22:05.880Z,53.8
2017-07-16T19:24:15.823Z,53.8
2017-07-16T19:26:05.551Z,53.8
2017-07-16T19:28:05.374Z,53.7
2017-07-16T19:30:05.221Z,53.6
2017-07-16T19:32:13.599Z,53.8
2017-07-16T19:34:07.919Z,53.9
2017-07-16T19:36:05.394Z,53.9
2017-07-16T19:38:10.212Z,53.8
2017-07-16T19:40:05.124Z,53.8
2017-07-16T19:42:10.830Z,53.9
2017-07-16T19:44:05.672Z,53.9
2017-07-16T19:46:05.765Z,53.9
2017-07-16T19:48:05.460Z,53.8
2017-07-16T19:50:05.304Z,54
2017-07-16T19:52:08.571Z,54.1
2017-07-16T19:54:05.311Z,53.8
2017-07-16T19:56:06.171Z,54
2017-07-16T19:58:05.849Z,54.1
2017-07-16T20:00:05.552Z,54
2017-07-16T20:02:05.645Z,54.1
2017-07-16T20:04:05.557Z,54.2
2017-07-16T20:06:05.303Z,54.1
2017-07-16T20:08:08.714Z,54
2017-07-16T20:10:05.403Z,54
2017-07-16T20:12:10.382Z,54
2017-07-16T20:14:05.436Z,54.2
2017-07-16T20:16:08.455Z,53.8
2017-07-16T20:18:05.382Z,54.1
2017-07-16T20:20:08.291Z,54.1
2017-07-16T20:22:05.037Z,54.1
2017-07-16T20:24:05.739Z,53.9
2017-07-16T20:26:08.588Z,53.8
2017-07-16T20:28:06.220Z,53.8
2017-07-16T20:30:06.018Z,54.1
2017-07-16T20:32:05.875Z,53.9
2017-07-16T20:34:05.866Z,54.1
2017-07-16T20:36:08.054Z,54.1
2017-07-16T20:38:05.809Z,54.1
2017-07-16T20:40:05.470Z,54.1
2017-07-16T20:42:05.175Z,53.9
2017-07-16T20:44:05.995Z,53.9
2017-07-16T20:46:05.224Z,53.9
2017-07-16T20:48:05.952Z,53.9
2017-07-16T20:50:08.338Z,53.9
2017-07-16T20:52:10.088Z,53.8
2017-07-16T20:54:05.857Z,53.8
2017-07-16T20:56:05.441Z,54
2017-07-16T20:58:05.165Z,53.9
2017-07-16T21:00:07.897Z,53.7
2017-07-16T21:02:05.543Z,53.7
2017-07-16T21:04:05.243Z,53.8
2017-07-16T21:06:06.078Z,53.8
2017-07-16T21:08:15.906Z,53.9
2017-07-16T21:10:05.618Z,53.9
2017-07-16T21:12:05.367Z,53.9
2017-07-16T21:14:05.453Z,53.8
2017-07-16T21:16:05.205Z,53.8
2017-07-16T21:18:08.712Z,54.1
2017-07-16T21:20:05.739Z,54
2017-07-16T21:22:06.103Z,53.6
2017-07-16T21:24:05.895Z,54.1
2017-07-16T21:26:11.985Z,54.1
2017-07-16T21:28:05.227Z,53.7
2017-07-16T21:30:05.600Z,54.1
2017-07-16T21:32:06.237Z,53.9
2017-07-16T21:34:05.017Z,53.9
2017-07-16T21:36:05.693Z,53.9
2017-07-16T21:38:06.264Z,53.7
2017-07-16T21:40:07.317Z,53.6
2017-07-16T21:42:10.127Z,53.8
2017-07-16T21:44:05.975Z,53.8
2017-07-16T21:46:05.666Z,53.7
2017-07-16T21:48:05.928Z,53.9
2017-07-16T21:50:05.494Z,53.9
2017-07-16T21:52:05.206Z,53.9
2017-07-16T21:54:08.860Z,53.9
2017-07-16T21:56:05.790Z,53.8
2017-07-16T21:58:06.003Z,53.7
2017-07-16T22:00:05.714Z,53.8
2017-07-16T22:02:08.754Z,53.7
2017-07-16T22:04:13.053Z,53.8
2017-07-16T22:06:05.778Z,53.8
2017-07-16T22:08:11.005Z,53.8
2017-07-16T22:10:06.070Z,53.8
2017-07-16T22:12:05.776Z,53.8
2017-07-16T22:14:07.708Z,53.7
2017-07-16T22:16:08.507Z,53.7
2017-07-16T22:18:05.423Z,53.7
2017-07-16T22:20:05.181Z,53.7
2017-07-16T22:22:05.833Z,53.7
2017-07-16T22:24:05.494Z,53.8
2017-07-16T22:26:07.981Z,53.7
2017-07-16T22:28:05.173Z,53.7
2017-07-16T22:30:05.373Z,53.7
2017-07-16T22:32:05.225Z,53.6
2017-07-16T22:34:05.511Z,53.7
2017-07-16T22:36:05.195Z,53.6
2017-07-16T22:38:05.913Z,53.6
2017-07-16T22:40:05.610Z,53.5
2017-07-16T22:42:07.867Z,53.6
2017-07-16T22:44:08.203Z,53.6
2017-07-16T22:46:10.549Z,53.6
2017-07-16T22:48:05.807Z,53.6
2017-07-16T22:50:05.321Z,53.6
2017-07-16T22:52:07.542Z,53.5
2017-07-16T22:54:07.782Z,53.3
2017-07-16T22:56:05.754Z,53.5
2017-07-16T22:58:05.798Z,53.6
2017-07-16T23:00:05.474Z,53.4
2017-07-16T23:02:05.315Z,53.4
2017-07-16T23:04:04.986Z,53.5
2017-07-16T23:06:05.164Z,53.3
2017-07-16T23:08:05.894Z,53.4
2017-07-16T23:10:05.576Z,53.5
2017-07-16T23:12:07.790Z,53.5
2017-07-16T23:14:05.821Z,53.2
2017-07-16T23:16:05.058Z,53.4
2017-07-16T23:18:05.957Z,53.4
2017-07-16T23:20:05.772Z,53.5
2017-07-16T23:22:08.142Z,53.3
2017-07-16T23:24:13.417Z,53.4
2017-07-16T23:26:10.180Z,53.1
2017-07-16T23:28:05.888Z,53.4
2017-07-16T23:30:05.693Z,53.4
2017-07-16T23:32:05.507Z,53.1
2017-07-16T23:34:05.225Z,53.3
2017-07-16T23:36:05.961Z,53.3
2017-07-16T23:38:05.467Z,53.2
2017-07-16T23:40:05.251Z,53.3
2017-07-16T23:42:08.457Z,53.3
2017-07-16T23:44:06.056Z,53.1
2017-07-16T23:46:05.836Z,53
2017-07-16T23:48:05.548Z,53.1
2017-07-16T23:50:05.888Z,53.3
2017-07-16T23:52:05.639Z,53.3
2017-07-16T23:54:05.348Z,52.9
2017-07-16T23:56:05.106Z,53.2
2017-07-16T23:58:05.779Z,53.1
